Hauptseite
METAR-TAF:

METAR-TAF

Flughäfen :

Hagerstown, Maryland, Vereinigte Staaten

Breite: 39-42-21N, Länge: 077-43-48W, Höhe: 214 m

Beobachtung

Neuester Wetterbericht von vor 54 Minuten, um 00:53 UTC
Windstille
Temperatur 1°C
Luftfeuchtigkeit 55%
Luftdruck 1021 hPa
Sichtweite: 16.1 km
Himmel klar

METAR: KHGR 160053Z 00000KT 10SM CLR 01/M07 A3016 RMK AO2 SLP227 T00111067

Zeit: 20:47 (01:47 UTC)


TAF: fehlend

Wetterbeobachtungen und Prognosen von mehr als 4000 Flughäfen (METAR und TAF Bericht).

Die verfügbaren Stationen werden durch gelbe und rote Markierungen auf der Karte dargestellt.

Führen Sie die Maus auf sie, um den Namen der Station zu sehen.

Darauf klicken, um die Beobachtung von Wetterbeobachtungen und Prognosen zu sehen.

Um die Karte zu ändern : klicken Sie auf den grünen Tasten mit einem schwarzen Kreuz Zum Vergrößern, auf den grünen Button mit einem Gedankenstrich zu verkleinern, oder auf die grünen Pfeile für benachbarte Karten.


METAR-TAF: